KMWA

Veterans of Southern Illinois Airport

Marion, Illinois, USA
METAR KMWA 171947Z 17007KT 2 1/2SM BR OVC005 03/03 A3004
Observed Flight Rules
Feb-17 @ 19:47 UTC (2 hours ago) Instrument Flight Rules
Wind Visibility Clouds Conditions
170° at 7 knots 2 1/2 miles
  • Overcast at 500' AGL
  • Mist
Temperatures Readings
Current 3°C / 37°F
Dewpoint 3°C / 37°F
Humidity 100%
Altimeter 30.04" Hg
Pressure 1017 hPa
Elevation 144
METAR KMWA 171947Z 17007KT 2 1/2SM BR OVC005 03/03 A3004
Observed Flight Rules
Feb-17 @ 19:47 UTC
(2 hours ago)
IFR
Wind Visibility
170° at 7 knots 2 1/2 miles
Clouds
  • Overcast at 500' AGL
Conditions
  • Mist
Temperature Dewpoint
3°C / 37°F 3°C / 37°F
Humidity Altimeter Pressure
100% 30.04" Hg 1017 hPa